createdAt,value
2017-06-30T00:02:26.137Z,16.00
2017-06-30T00:04:54.286Z,16.00
2017-06-30T00:07:22.484Z,16.10
2017-06-30T00:09:50.666Z,16.20
2017-06-30T00:12:18.830Z,16.20
2017-06-30T00:14:47.003Z,16.20
2017-06-30T00:17:15.155Z,16.10
2017-06-30T00:19:43.316Z,16.20
2017-06-30T00:22:11.470Z,16.10
2017-06-30T00:24:39.658Z,16.10
2017-06-30T00:27:08.587Z,16.10
2017-06-30T00:29:36.774Z,16.10
2017-06-30T00:32:04.922Z,16.10
2017-06-30T00:34:33.106Z,16.10
2017-06-30T00:37:01.249Z,16.10
2017-06-30T00:39:29.436Z,16.00
2017-06-30T00:41:57.602Z,16.10
2017-06-30T00:44:25.750Z,16.00
2017-06-30T00:46:54.722Z,16.10
2017-06-30T00:49:22.975Z,16.10
2017-06-30T00:51:51.118Z,16.10
2017-06-30T00:54:19.365Z,16.10
2017-06-30T00:56:48.294Z,16.10
2017-06-30T00:59:16.449Z,16.10
2017-06-30T01:01:44.629Z,16.00
2017-06-30T01:04:12.798Z,16.00
2017-06-30T01:06:40.998Z,16.00
2017-06-30T01:09:09.161Z,16.00
2017-06-30T01:11:37.342Z,16.00
2017-06-30T01:14:05.530Z,16.00
2017-06-30T01:16:33.677Z,16.00
2017-06-30T01:19:01.906Z,15.90
2017-06-30T01:21:30.078Z,15.90
2017-06-30T01:23:58.275Z,16.00
2017-06-30T01:26:27.181Z,15.90
2017-06-30T01:28:55.390Z,15.90
2017-06-30T01:31:23.547Z,15.90
2017-06-30T01:33:51.677Z,15.90
2017-06-30T01:36:20.643Z,16.00
2017-06-30T01:38:48.796Z,15.90
2017-06-30T01:41:16.991Z,15.90
2017-06-30T01:43:45.130Z,15.90
2017-06-30T01:46:13.318Z,15.90
2017-06-30T01:48:41.481Z,15.80
2017-06-30T01:51:09.638Z,15.80
2017-06-30T01:53:37.822Z,15.70
2017-06-30T01:56:05.961Z,15.70
2017-06-30T01:58:34.148Z,15.70
2017-06-30T02:01:02.324Z,15.70
2017-06-30T02:03:30.482Z,15.80
2017-06-30T02:05:58.629Z,15.80
2017-06-30T02:08:27.613Z,15.70
2017-06-30T02:10:55.755Z,15.70
2017-06-30T02:13:23.929Z,15.70
2017-06-30T02:15:52.081Z,15.70
2017-06-30T02:18:20.275Z,15.60
2017-06-30T02:20:48.431Z,15.60
2017-06-30T02:23:16.610Z,15.60
2017-06-30T02:25:44.783Z,15.60
2017-06-30T02:28:12.928Z,15.70
2017-06-30T02:30:41.099Z,15.60
2017-06-30T02:33:09.300Z,15.50
2017-06-30T02:35:37.435Z,15.60
2017-06-30T02:38:06.373Z,15.60
2017-06-30T02:40:34.526Z,15.60
2017-06-30T02:43:02.711Z,15.60
2017-06-30T02:45:30.874Z,15.50
2017-06-30T02:47:59.029Z,15.50
2017-06-30T02:50:27.210Z,15.50
2017-06-30T02:52:55.345Z,15.50
2017-06-30T02:55:23.552Z,15.50
2017-06-30T02:57:51.706Z,15.50
2017-06-30T03:00:20.651Z,15.60
2017-06-30T03:02:48.809Z,15.60
2017-06-30T03:05:17.086Z,15.60
2017-06-30T03:07:45.242Z,15.70
2017-06-30T03:10:13.384Z,15.70
2017-06-30T03:12:42.341Z,15.80
2017-06-30T03:15:10.482Z,15.70
2017-06-30T03:17:38.666Z,15.70
2017-06-30T03:20:06.826Z,15.80
2017-06-30T03:22:34.983Z,15.70
2017-06-30T03:25:03.153Z,15.70
2017-06-30T03:27:32.105Z,15.80
2017-06-30T03:30:00.275Z,15.70
2017-06-30T03:32:28.480Z,15.70
2017-06-30T03:34:57.429Z,15.70
2017-06-30T03:37:25.571Z,15.70
2017-06-30T03:39:53.819Z,15.80
2017-06-30T03:42:22.737Z,15.60
2017-06-30T03:44:50.909Z,15.60
2017-06-30T03:47:19.098Z,15.60
2017-06-30T03:49:47.242Z,15.80
2017-06-30T03:52:15.450Z,15.80
2017-06-30T03:54:43.594Z,15.90
2017-06-30T03:57:11.770Z,16.00
2017-06-30T03:59:39.925Z,15.90
2017-06-30T04:02:09.224Z,15.90
2017-06-30T04:04:38.163Z,16.00
2017-06-30T04:07:06.381Z,16.00
2017-06-30T04:09:34.551Z,16.10
2017-06-30T04:12:02.706Z,16.00
2017-06-30T04:14:30.885Z,16.10
2017-06-30T04:16:59.043Z,16.00
2017-06-30T04:19:27.217Z,15.90
2017-06-30T04:21:55.579Z,16.00
2017-06-30T04:24:23.758Z,16.10
2017-06-30T04:26:51.907Z,16.20
2017-06-30T04:29:20.064Z,16.10
2017-06-30T04:31:48.251Z,16.20
2017-06-30T04:34:16.431Z,16.10
2017-06-30T04:36:44.587Z,16.20
2017-06-30T04:39:12.856Z,16.40
2017-06-30T04:41:41.939Z,16.20
2017-06-30T04:44:11.027Z,16.20
2017-06-30T04:46:39.973Z,16.20
2017-06-30T04:49:08.165Z,16.20
2017-06-30T04:51:36.313Z,16.30
2017-06-30T04:54:04.495Z,16.40
2017-06-30T04:56:32.689Z,16.40
2017-06-30T04:59:00.881Z,16.40
2017-06-30T05:01:29.044Z,16.30
2017-06-30T05:03:57.214Z,16.40
2017-06-30T05:06:25.383Z,16.40
2017-06-30T05:08:53.550Z,16.40
2017-06-30T05:11:21.773Z,16.40
2017-06-30T05:13:49.945Z,16.50
2017-06-30T05:16:18.125Z,16.50
2017-06-30T05:18:46.278Z,16.40
2017-06-30T05:21:15.247Z,16.90
2017-06-30T05:23:44.194Z,16.80
2017-06-30T05:26:12.368Z,16.80
2017-06-30T05:28:40.538Z,16.90
2017-06-30T05:31:08.823Z,17.00
2017-06-30T05:33:37.018Z,17.20
2017-06-30T05:36:05.200Z,17.10
2017-06-30T05:38:33.426Z,17.30
2017-06-30T05:41:01.583Z,17.00
2017-06-30T05:43:29.774Z,17.10
2017-06-30T05:45:57.930Z,17.40
2017-06-30T05:48:26.111Z,17.40
2017-06-30T05:50:54.281Z,17.40
2017-06-30T05:53:22.466Z,17.40
2017-06-30T05:55:50.647Z,17.20
2017-06-30T05:58:18.809Z,17.60
2017-06-30T06:00:47.255Z,17.50
2017-06-30T06:03:16.192Z,17.50
2017-06-30T06:05:44.340Z,17.50
2017-06-30T06:08:13.276Z,17.90
2017-06-30T06:10:41.432Z,17.90
2017-06-30T06:13:09.606Z,17.60
2017-06-30T06:15:37.881Z,17.60
2017-06-30T06:18:06.070Z,17.80
2017-06-30T06:20:34.262Z,18.40
2017-06-30T06:23:02.406Z,18.40
2017-06-30T06:25:30.576Z,18.40
2017-06-30T06:27:58.756Z,18.20
2017-06-30T06:30:26.957Z,17.80
2017-06-30T06:32:55.110Z,17.80
2017-06-30T06:35:23.265Z,18.30
2017-06-30T06:37:51.457Z,18.90
2017-06-30T06:40:19.596Z,19.30
2017-06-30T06:42:47.750Z,19.20
2017-06-30T06:45:16.715Z,18.00
2017-06-30T06:47:44.849Z,18.00
2017-06-30T06:50:13.022Z,18.30
2017-06-30T06:52:41.242Z,18.50
2017-06-30T06:55:09.381Z,18.50
2017-06-30T06:57:37.534Z,18.60
2017-06-30T07:00:05.791Z,18.60
2017-06-30T07:02:33.942Z,18.60
2017-06-30T07:05:02.090Z,18.80
2017-06-30T07:07:30.297Z,18.80
2017-06-30T07:09:59.312Z,18.70
2017-06-30T07:12:27.505Z,18.70
2017-06-30T07:14:55.709Z,18.40
2017-06-30T07:17:23.855Z,18.00
2017-06-30T07:19:52.057Z,18.20
2017-06-30T07:22:20.298Z,18.10
2017-06-30T07:24:48.459Z,18.10
2017-06-30T07:27:16.627Z,18.00
2017-06-30T07:29:44.810Z,18.20
2017-06-30T07:32:13.003Z,18.50
2017-06-30T07:34:41.143Z,18.70
2017-06-30T07:37:09.310Z,18.70
2017-06-30T07:39:37.521Z,18.80
2017-06-30T07:42:05.685Z,19.10
2017-06-30T07:44:33.839Z,19.00
2017-06-30T07:47:02.019Z,20.10
2017-06-30T07:49:30.169Z,20.40
2017-06-30T07:51:58.369Z,20.00
2017-06-30T07:54:26.525Z,19.70
2017-06-30T07:56:54.673Z,20.40
2017-06-30T07:59:23.638Z,20.40
2017-06-30T08:01:51.818Z,20.40
2017-06-30T08:04:20.032Z,19.60
2017-06-30T08:06:48.181Z,19.70
2017-06-30T08:09:17.137Z,20.30
2017-06-30T08:11:45.310Z,20.20
2017-06-30T08:14:13.482Z,20.40
2017-06-30T08:16:41.658Z,20.60
2017-06-30T08:19:09.812Z,20.10
2017-06-30T08:21:37.982Z,20.40
2017-06-30T08:24:06.188Z,20.00
2017-06-30T08:26:34.345Z,20.20
2017-06-30T08:29:02.506Z,19.90
2017-06-30T08:31:30.689Z,19.70
2017-06-30T08:33:58.843Z,19.60
2017-06-30T08:36:27.042Z,19.50
2017-06-30T08:38:55.199Z,19.10
2017-06-30T08:41:23.358Z,19.20
2017-06-30T08:43:51.546Z,19.70
2017-06-30T08:46:20.557Z,19.40
2017-06-30T08:48:48.693Z,19.30
2017-06-30T08:51:16.893Z,19.80
2017-06-30T08:53:45.047Z,19.70
2017-06-30T08:56:13.224Z,19.70
2017-06-30T08:58:41.415Z,19.90
2017-06-30T09:01:09.617Z,19.80
2017-06-30T09:03:38.545Z,19.90
2017-06-30T09:06:06.727Z,19.90
2017-06-30T09:08:34.918Z,20.30
2017-06-30T09:11:03.070Z,20.20
2017-06-30T09:13:31.229Z,20.00
2017-06-30T09:15:59.438Z,20.50
2017-06-30T09:18:27.617Z,20.80
2017-06-30T09:20:55.833Z,20.70
2017-06-30T09:23:24.752Z,20.50
2017-06-30T09:25:52.926Z,20.50
2017-06-30T09:28:21.125Z,20.40
2017-06-30T09:30:49.387Z,20.00
2017-06-30T09:33:17.554Z,20.00
2017-06-30T09:35:45.701Z,20.10
2017-06-30T09:38:13.845Z,20.30
2017-06-30T09:40:42.046Z,20.50
2017-06-30T09:43:10.317Z,21.10
2017-06-30T09:45:39.254Z,21.80
2017-06-30T09:48:07.406Z,21.90
2017-06-30T09:50:35.591Z,21.60
2017-06-30T09:53:03.753Z,21.40
2017-06-30T09:55:31.901Z,21.20
2017-06-30T09:58:00.092Z,21.50
2017-06-30T10:00:28.254Z,21.80
2017-06-30T10:02:56.485Z,21.50
2017-06-30T10:05:24.641Z,21.00
2017-06-30T10:07:52.821Z,20.40
2017-06-30T10:10:21.021Z,20.40
2017-06-30T10:12:49.210Z,20.50
2017-06-30T10:15:18.186Z,20.70
2017-06-30T10:17:46.352Z,20.70
2017-06-30T10:20:14.505Z,20.90
2017-06-30T10:22:42.776Z,21.20
2017-06-30T10:25:10.942Z,20.70
2017-06-30T10:27:39.149Z,20.90
2017-06-30T10:30:07.319Z,21.30
2017-06-30T10:32:35.489Z,21.10
2017-06-30T10:35:03.682Z,21.20
2017-06-30T10:37:32.609Z,20.60
2017-06-30T10:40:00.784Z,20.60
2017-06-30T10:42:29.028Z,21.00
2017-06-30T10:44:57.935Z,21.70
2017-06-30T10:47:26.094Z,21.70
2017-06-30T10:49:55.034Z,21.10
2017-06-30T10:52:23.207Z,21.10
2017-06-30T10:54:51.388Z,21.20
2017-06-30T10:57:19.588Z,21.30
2017-06-30T10:59:47.748Z,21.60
2017-06-30T11:02:15.962Z,21.80
2017-06-30T11:04:44.213Z,22.00
2017-06-30T11:07:13.226Z,22.10
2017-06-30T11:09:41.559Z,22.00
2017-06-30T11:12:09.805Z,21.90
2017-06-30T11:14:37.951Z,21.80
2017-06-30T11:17:06.118Z,21.80
2017-06-30T11:19:34.309Z,21.40
2017-06-30T11:22:02.535Z,21.40
2017-06-30T11:24:30.746Z,21.60
2017-06-30T11:26:58.914Z,22.10
2017-06-30T11:29:27.842Z,22.10
2017-06-30T11:31:56.021Z,22.10
2017-06-30T11:34:24.194Z,22.20
2017-06-30T11:36:52.968Z,21.80
2017-06-30T11:39:21.117Z,21.80
2017-06-30T11:41:49.297Z,21.80
2017-06-30T11:44:17.470Z,21.60
2017-06-30T11:46:45.659Z,21.70
2017-06-30T11:49:13.991Z,21.50
2017-06-30T11:51:42.926Z,21.40
2017-06-30T11:54:11.125Z,21.40
2017-06-30T11:56:39.294Z,21.70
2017-06-30T11:59:07.496Z,21.70
2017-06-30T12:01:35.641Z,21.70
2017-06-30T12:04:03.814Z,22.00
2017-06-30T12:06:31.993Z,22.20
2017-06-30T12:09:00.149Z,22.20
2017-06-30T12:11:28.480Z,22.10
2017-06-30T12:13:57.393Z,22.00
2017-06-30T12:16:25.543Z,22.00
2017-06-30T12:18:54.507Z,22.40
2017-06-30T12:21:22.684Z,22.40
2017-06-30T12:23:50.865Z,22.40
2017-06-30T12:26:19.078Z,22.30
2017-06-30T12:28:47.252Z,22.50
2017-06-30T12:31:15.410Z,22.20
2017-06-30T12:33:43.626Z,22.00
2017-06-30T12:36:11.782Z,21.90
2017-06-30T12:38:39.969Z,21.80
2017-06-30T12:41:08.366Z,21.80
2017-06-30T12:43:36.571Z,21.80
2017-06-30T12:46:05.495Z,21.70
2017-06-30T12:48:33.646Z,21.70
2017-06-30T12:51:01.812Z,22.10
2017-06-30T12:53:30.759Z,22.20
2017-06-30T12:55:58.910Z,22.10
2017-06-30T12:58:27.118Z,21.80
2017-06-30T13:00:55.344Z,22.20
2017-06-30T13:03:23.547Z,22.10
2017-06-30T13:05:51.695Z,22.30
2017-06-30T13:08:20.038Z,22.50
2017-06-30T13:10:48.971Z,22.60
2017-06-30T13:13:17.136Z,22.60
2017-06-30T13:15:45.414Z,22.60
2017-06-30T13:18:13.549Z,22.40
2017-06-30T13:20:42.478Z,22.80
2017-06-30T13:23:10.700Z,22.80
2017-06-30T13:25:38.842Z,22.90
2017-06-30T13:28:06.987Z,23.30
2017-06-30T13:30:35.172Z,23.60
2017-06-30T13:33:03.435Z,23.40
2017-06-30T13:35:31.643Z,22.60
2017-06-30T13:37:59.795Z,22.20
2017-06-30T13:40:27.998Z,22.40
2017-06-30T13:42:56.151Z,22.60
2017-06-30T13:45:24.349Z,23.30
2017-06-30T13:47:52.576Z,23.50
2017-06-30T13:50:20.826Z,23.60
2017-06-30T13:52:49.127Z,23.20
2017-06-30T13:55:17.384Z,23.30
2017-06-30T13:57:46.408Z,23.40
2017-06-30T14:00:14.557Z,23.40
2017-06-30T14:02:42.769Z,23.40
2017-06-30T14:05:10.910Z,23.10
2017-06-30T14:07:39.074Z,23.40
2017-06-30T14:10:08.162Z,23.50
2017-06-30T14:12:37.072Z,23.60
2017-06-30T14:15:05.225Z,23.60
2017-06-30T14:17:34.229Z,23.90
2017-06-30T14:20:03.170Z,23.70
2017-06-30T14:22:31.321Z,23.70
2017-06-30T14:24:59.498Z,23.60
2017-06-30T14:27:27.646Z,23.70
2017-06-30T14:29:55.858Z,23.70
2017-06-30T14:32:24.003Z,23.40
2017-06-30T14:34:52.171Z,23.70
2017-06-30T14:37:20.342Z,23.10
2017-06-30T14:39:48.510Z,23.00
2017-06-30T14:42:16.711Z,23.20
2017-06-30T14:44:44.865Z,23.00
2017-06-30T14:47:13.042Z,23.10
2017-06-30T14:49:41.198Z,23.40
2017-06-30T14:52:09.388Z,23.60
2017-06-30T14:54:37.541Z,23.60
2017-06-30T14:57:05.709Z,23.70
2017-06-30T14:59:33.895Z,23.70
2017-06-30T15:02:02.050Z,23.30
2017-06-30T15:04:30.237Z,23.20
2017-06-30T15:06:58.453Z,23.40
2017-06-30T15:09:26.640Z,23.30
2017-06-30T15:11:54.800Z,23.20
2017-06-30T15:14:22.971Z,23.30
2017-06-30T15:16:51.225Z,23.60
2017-06-30T15:19:19.394Z,23.70
2017-06-30T15:21:47.537Z,23.50
2017-06-30T15:24:15.739Z,23.70
2017-06-30T15:26:43.877Z,23.50
2017-06-30T15:29:12.846Z,23.50
2017-06-30T15:31:41.131Z,23.50
2017-06-30T15:34:10.051Z,23.40
2017-06-30T15:36:38.239Z,23.40
2017-06-30T15:39:06.438Z,23.30
2017-06-30T15:41:34.596Z,23.30
2017-06-30T15:44:02.778Z,23.60
2017-06-30T15:46:30.941Z,23.90
2017-06-30T15:48:59.114Z,24.10
2017-06-30T15:51:27.277Z,24.10
2017-06-30T15:53:55.448Z,24.30
2017-06-30T15:56:23.621Z,24.10
2017-06-30T15:58:51.831Z,24.20
2017-06-30T16:01:19.993Z,23.90
2017-06-30T16:03:48.180Z,23.80
2017-06-30T16:06:16.344Z,23.60
2017-06-30T16:08:44.530Z,23.40
2017-06-30T16:11:12.685Z,23.50
2017-06-30T16:13:40.879Z,23.60
2017-06-30T16:16:09.038Z,23.40
2017-06-30T16:18:37.225Z,23.70
2017-06-30T16:21:05.382Z,23.60
2017-06-30T16:23:33.618Z,23.50
2017-06-30T16:26:01.816Z,23.20
2017-06-30T16:28:29.995Z,23.00
2017-06-30T16:30:58.168Z,22.90
2017-06-30T16:33:26.429Z,22.70
2017-06-30T16:35:54.559Z,22.60
2017-06-30T16:38:23.489Z,22.60
2017-06-30T16:40:51.679Z,22.60
2017-06-30T16:43:19.840Z,22.60
2017-06-30T16:45:48.039Z,22.70
2017-06-30T16:48:16.209Z,22.70
2017-06-30T16:50:44.395Z,22.00
2017-06-30T16:53:12.568Z,21.80
2017-06-30T16:55:40.783Z,21.70
2017-06-30T16:58:08.959Z,21.70
2017-06-30T17:00:37.225Z,21.50
2017-06-30T17:03:05.402Z,21.60
2017-06-30T17:05:33.545Z,21.80
2017-06-30T17:08:01.727Z,22.00
2017-06-30T17:10:30.765Z,22.10
2017-06-30T17:12:58.943Z,22.10
2017-06-30T17:15:27.156Z,22.10
2017-06-30T17:17:55.335Z,21.80
2017-06-30T17:20:24.263Z,21.90
2017-06-30T17:22:52.456Z,21.80
2017-06-30T17:25:20.677Z,21.60
2017-06-30T17:27:48.823Z,21.50
2017-06-30T17:30:17.050Z,21.40
2017-06-30T17:32:45.325Z,21.50
2017-06-30T17:35:13.491Z,21.60
2017-06-30T17:37:41.647Z,21.60
2017-06-30T17:40:10.610Z,21.50
2017-06-30T17:42:38.770Z,21.50
2017-06-30T17:45:07.043Z,21.60
2017-06-30T17:47:35.214Z,21.50
2017-06-30T17:50:03.428Z,21.50
2017-06-30T17:52:31.614Z,21.40
2017-06-30T17:55:00.537Z,21.40
2017-06-30T17:57:28.726Z,21.30
2017-06-30T17:59:56.908Z,21.40
2017-06-30T18:02:25.130Z,21.40
2017-06-30T18:04:54.063Z,21.40
2017-06-30T18:07:22.255Z,21.30
2017-06-30T18:09:50.451Z,21.40
2017-06-30T18:12:18.695Z,21.30
2017-06-30T18:14:46.873Z,21.30
2017-06-30T18:17:15.009Z,21.30
2017-06-30T18:19:43.231Z,21.20
2017-06-30T18:22:11.385Z,21.20
2017-06-30T18:24:39.553Z,21.20
2017-06-30T18:27:07.817Z,21.10
2017-06-30T18:29:35.995Z,21.10
2017-06-30T18:32:04.210Z,21.00
2017-06-30T18:34:32.439Z,21.00
2017-06-30T18:37:00.649Z,20.90
2017-06-30T18:39:28.813Z,20.90
2017-06-30T18:41:56.991Z,20.90
2017-06-30T18:44:25.231Z,20.90
2017-06-30T18:46:53.385Z,20.80
2017-06-30T18:49:21.561Z,20.70
2017-06-30T18:51:49.726Z,20.60
2017-06-30T18:54:17.886Z,20.40
2017-06-30T18:56:46.846Z,20.40
2017-06-30T18:59:15.011Z,20.40
2017-06-30T19:01:43.234Z,20.30
2017-06-30T19:04:11.393Z,20.30
2017-06-30T19:06:40.289Z,20.30
2017-06-30T19:09:08.483Z,20.30
2017-06-30T19:11:36.681Z,20.10
2017-06-30T19:14:04.878Z,20.00
2017-06-30T19:16:33.027Z,19.90
2017-06-30T19:19:01.210Z,19.80
2017-06-30T19:21:29.413Z,19.70
2017-06-30T19:23:58.385Z,19.60
2017-06-30T19:26:26.597Z,19.50
2017-06-30T19:28:55.600Z,19.70
2017-06-30T19:31:23.765Z,19.70
2017-06-30T19:33:51.967Z,19.90
2017-06-30T19:36:20.137Z,20.00
2017-06-30T19:38:48.395Z,20.00
2017-06-30T19:41:16.581Z,20.10
2017-06-30T19:43:44.764Z,20.10
2017-06-30T19:46:12.970Z,20.00
2017-06-30T19:48:41.158Z,19.90
2017-06-30T19:51:09.330Z,19.70
2017-06-30T19:53:37.505Z,19.50
2017-06-30T19:56:06.591Z,19.40
2017-06-30T19:58:34.732Z,19.40
2017-06-30T20:01:02.945Z,19.20
2017-06-30T20:03:31.168Z,19.20
2017-06-30T20:05:59.355Z,19.20
2017-06-30T20:08:27.576Z,19.20
2017-06-30T20:10:56.548Z,18.90
2017-06-30T20:13:24.746Z,18.90
2017-06-30T20:15:53.820Z,18.90
2017-06-30T20:18:21.995Z,18.90
2017-06-30T20:20:50.154Z,18.80
2017-06-30T20:23:18.334Z,18.60
2017-06-30T20:25:46.528Z,18.50
2017-06-30T20:28:15.575Z,18.40
2017-06-30T20:30:43.731Z,18.40
2017-06-30T20:33:12.003Z,18.30
2017-06-30T20:35:40.193Z,18.20
2017-06-30T20:38:08.363Z,18.20
2017-06-30T20:40:36.551Z,18.10
2017-06-30T20:43:04.733Z,18.10
2017-06-30T20:45:32.911Z,18.20
2017-06-30T20:48:01.135Z,18.20
2017-06-30T20:50:29.324Z,18.10
2017-06-30T20:52:57.599Z,18.20
2017-06-30T20:55:25.791Z,18.10
2017-06-30T20:57:53.954Z,18.10
2017-06-30T21:00:22.293Z,18.20
2017-06-30T21:02:50.730Z,18.20
2017-06-30T21:05:19.071Z,18.20
2017-06-30T21:07:47.345Z,18.30
2017-06-30T21:10:15.580Z,18.40
2017-06-30T21:12:43.771Z,18.40
2017-06-30T21:15:11.938Z,18.50
2017-06-30T21:17:40.903Z,18.60
2017-06-30T21:20:09.104Z,18.70
2017-06-30T21:22:38.011Z,18.70
2017-06-30T21:25:06.201Z,18.70
2017-06-30T21:27:34.418Z,18.70
2017-06-30T21:30:02.672Z,18.70
2017-06-30T21:32:30.846Z,18.60
2017-06-30T21:34:59.026Z,18.70
2017-06-30T21:37:27.251Z,18.60
2017-06-30T21:39:55.425Z,18.50
2017-06-30T21:42:23.587Z,18.50
2017-06-30T21:44:52.602Z,18.50
2017-06-30T21:47:20.817Z,18.50
2017-06-30T21:49:49.034Z,18.40
2017-06-30T21:52:17.973Z,18.40
2017-06-30T21:54:46.166Z,18.40
2017-06-30T21:57:14.351Z,18.30
2017-06-30T21:59:42.534Z,18.30
2017-06-30T22:02:11.447Z,18.20
2017-06-30T22:04:39.818Z,18.10
2017-06-30T22:07:08.005Z,18.10
2017-06-30T22:09:36.167Z,18.20
2017-06-30T22:12:04.358Z,18.10
2017-06-30T22:14:32.494Z,18.10
2017-06-30T22:17:01.473Z,18.00
2017-06-30T22:19:30.407Z,17.90
2017-06-30T22:21:58.571Z,17.90
2017-06-30T22:24:26.744Z,17.90
2017-06-30T22:26:54.894Z,17.80
2017-06-30T22:29:23.960Z,17.70
2017-06-30T22:31:52.114Z,17.70
2017-06-30T22:34:20.343Z,17.70
2017-06-30T22:36:48.493Z,17.60
2017-06-30T22:39:17.466Z,17.70
2017-06-30T22:41:45.633Z,17.70
2017-06-30T22:44:13.841Z,17.70
2017-06-30T22:46:42.783Z,17.60
2017-06-30T22:49:10.957Z,17.60
2017-06-30T22:51:39.149Z,17.60
2017-06-30T22:54:07.298Z,17.60
2017-06-30T22:56:35.445Z,17.60
2017-06-30T22:59:03.668Z,17.60
2017-06-30T23:01:31.811Z,17.50
2017-06-30T23:04:00.011Z,17.50
2017-06-30T23:06:28.177Z,17.50
2017-06-30T23:08:56.437Z,17.40
2017-06-30T23:11:24.581Z,17.30
2017-06-30T23:13:53.660Z,17.30
2017-06-30T23:16:21.890Z,17.30
2017-06-30T23:18:50.051Z,17.20
2017-06-30T23:21:18.251Z,17.20
2017-06-30T23:23:46.416Z,17.20
2017-06-30T23:26:14.564Z,17.20
2017-06-30T23:28:42.722Z,17.10
2017-06-30T23:31:11.645Z,17.00
2017-06-30T23:33:39.831Z,16.90
2017-06-30T23:36:07.975Z,16.90
2017-06-30T23:38:36.150Z,16.90
2017-06-30T23:41:04.294Z,16.90
2017-06-30T23:43:32.478Z,16.80
2017-06-30T23:46:00.626Z,16.90
2017-06-30T23:48:29.577Z,17.00
2017-06-30T23:50:57.706Z,16.90
2017-06-30T23:53:25.894Z,17.00
2017-06-30T23:55:54.096Z,16.90
2017-06-30T23:58:22.258Z,16.90
